Time;durP1;ratioP1;P1;durP2;ratioP2;P2;SDS_P1;SDS_P2;PMS_P1;PMS_P2;Temp;Humidity;BMP_temperature;BMP_pressure;BME280_temperature;BME280_humidity;BME280_pressure;Samples;Min_cycle;Max_cycle;Signal;HPM_P1;HPM_P2
2023/03/05 00:01:17;;;;;;;6.90;3.40;;;;;;;;;;5094959;28;20805;-65
2023/03/05 00:03:44;;;;;;;8.52;4.38;;;;;;;;;;5094761;28;20482;-65
2023/03/05 00:06:13;;;;;;;7.43;4.00;;;;;;;;;;5094631;28;20189;-65
2023/03/05 00:08:40;;;;;;;8.67;3.30;;;;;;;;;;5094882;28;20802;-65
2023/03/05 00:11:08;;;;;;;10.63;3.47;;;;;;;;;;5094785;28;20447;-65
2023/03/05 00:13:35;;;;;;;10.93;4.78;;;;;;;;;;5094707;28;20263;-65
2023/03/05 00:16:03;;;;;;;7.45;2.80;;;;;;;;;;5094481;28;20579;-65
2023/03/05 00:18:30;;;;;;;8.33;3.10;;;;;;;;;;5094533;28;20291;-65
2023/03/05 00:20:57;;;;;;;9.67;3.67;;;;;;;;;;5094614;28;20984;-65
2023/03/05 00:23:25;;;;;;;13.88;4.25;;;;;;;;;;5094287;28;20513;-65
2023/03/05 00:25:53;;;;;;;7.32;3.45;;;;;;;;;;5094517;28;20193;-64
2023/03/05 00:28:20;;;;;;;13.88;3.55;;;;;;;;;;5094241;28;20218;-64
2023/03/05 00:30:47;;;;;;;16.33;3.30;;;;;;;;;;5094356;28;20276;-65
2023/03/05 00:33:14;;;;;;;7.67;3.47;;;;;;;;;;5094330;28;20588;-65
2023/03/05 00:35:41;;;;;;;11.18;3.83;;;;;;;;;;5094148;28;20456;-65
2023/03/05 00:38:09;;;;;;;7.67;3.07;;;;;;;;;;5094311;28;20258;-65
2023/03/05 00:40:40;;;;;;;11.45;3.08;;;;;;;;;;5094261;28;20956;-65
2023/03/05 00:43:08;;;;;;;12.35;3.50;;;;;;;;;;5094181;28;20284;-65
2023/03/05 00:45:35;;;;;;;6.65;2.90;;;;;;;;;;5093884;28;20196;-64
2023/03/05 00:48:02;;;;;;;12.52;4.05;;;;;;;;;;5093722;28;20198;-65
2023/03/05 00:50:29;;;;;;;9.23;3.85;;;;;;;;;;5094108;28;20282;-65
2023/03/05 00:52:56;;;;;;;12.32;3.25;;;;;;;;;;5094021;28;20189;-65
2023/03/05 00:55:23;;;;;;;9.73;3.50;;;;;;;;;;5093749;28;20193;-65
2023/03/05 00:57:51;;;;;;;11.73;3.10;;;;;;;;;;5093727;28;20193;-64
2023/03/05 01:00:19;;;;;;;7.95;2.42;;;;;;;;;;5093778;28;20278;-64
2023/03/05 01:02:46;;;;;;;13.48;3.05;;;;;;;;;;5093952;28;20248;-64
2023/03/05 01:05:14;;;;;;;8.10;2.90;;;;;;;;;;5093954;28;20216;-65
2023/03/05 01:07:41;;;;;;;16.02;3.58;;;;;;;;;;5093712;28;20192;-65
2023/03/05 01:10:12;;;;;;;9.07;2.50;;;;;;;;;;5093830;28;20242;-65
2023/03/05 01:12:39;;;;;;;10.15;2.33;;;;;;;;;;5093784;28;20227;-65
2023/03/05 01:15:08;;;;;;;12.32;2.95;;;;;;;;;;5093414;28;20285;-65
2023/03/05 01:17:35;;;;;;;15.60;3.67;;;;;;;;;;5093295;28;20304;-65
2023/03/05 01:20:02;;;;;;;11.18;3.95;;;;;;;;;;5093425;28;20722;-65
2023/03/05 01:22:31;;;;;;;10.32;3.10;;;;;;;;;;5093430;28;20222;-65
2023/03/05 01:24:58;;;;;;;11.82;3.90;;;;;;;;;;5093543;28;20196;-65
2023/03/05 01:27:25;;;;;;;8.75;2.95;;;;;;;;;;5093196;28;20226;-65
2023/03/05 01:29:52;;;;;;;15.40;3.65;;;;;;;;;;5093660;28;20283;-65
2023/03/05 01:32:20;;;;;;;11.50;2.92;;;;;;;;;;5093493;28;20188;-65
2023/03/05 01:34:48;;;;;;;7.57;3.20;;;;;;;;;;5093373;28;20203;-64
2023/03/05 01:37:15;;;;;;;9.85;2.95;;;;;;;;;;5093282;28;20270;-65
2023/03/05 01:39:42;;;;;;;9.95;4.00;;;;;;;;;;5093173;28;20189;-65
2023/03/05 01:42:09;;;;;;;8.75;2.75;;;;;;;;;;5093005;28;20266;-64
2023/03/05 01:44:36;;;;;;;12.13;3.15;;;;;;;;;;5093099;28;20219;-65
2023/03/05 01:47:04;;;;;;;15.88;3.45;;;;;;;;;;5093187;28;20196;-65
2023/03/05 01:49:33;;;;;;;11.80;4.32;;;;;;;;;;5092983;28;20714;-65
2023/03/05 01:52:03;;;;;;;15.85;2.63;;;;;;;;;;5093065;28;20682;-64
2023/03/05 01:54:33;;;;;;;9.88;2.70;;;;;;;;;;5093119;28;20269;-65
2023/03/05 01:57:02;;;;;;;7.40;3.30;;;;;;;;;;5093177;28;20200;-65
2023/03/05 01:59:29;;;;;;;14.38;2.80;;;;;;;;;;5095057;28;20189;-65
2023/03/05 02:01:58;;;;;;;6.38;2.20;;;;;;;;;;5097061;28;20194;-65
2023/03/05 02:04:29;;;;;;;7.25;3.22;;;;;;;;;;5097087;28;20216;-65
2023/03/05 02:06:58;;;;;;;9.70;2.03;;;;;;;;;;5097084;28;20189;-65
2023/03/05 02:09:27;;;;;;;12.18;2.10;;;;;;;;;;5097381;28;20196;-65
2023/03/05 02:11:54;;;;;;;6.03;2.50;;;;;;;;;;5097237;28;20570;-65
2023/03/05 02:14:23;;;;;;;8.43;2.17;;;;;;;;;;5097026;28;20220;-66
2023/03/05 02:16:50;;;;;;;7.03;2.85;;;;;;;;;;5096780;28;20226;-66
2023/03/05 02:19:17;;;;;;;2.60;1.80;;;;;;;;;;5096786;28;20220;-66
2023/03/05 02:21:46;;;;;;;8.43;2.40;;;;;;;;;;5096694;28;20656;-66
2023/03/05 02:24:14;;;;;;;7.97;1.75;;;;;;;;;;5096612;28;20801;-67
2023/03/05 02:26:43;;;;;;;5.97;1.95;;;;;;;;;;5096535;28;20192;-65
2023/03/05 02:29:11;;;;;;;8.10;1.80;;;;;;;;;;5096573;28;20218;-66
2023/03/05 02:31:38;;;;;;;6.68;1.75;;;;;;;;;;5096731;28;20272;-65
2023/03/05 02:34:06;;;;;;;10.90;2.28;;;;;;;;;;5096555;28;20245;-65
2023/03/05 02:36:33;;;;;;;4.80;1.50;;;;;;;;;;5096403;28;20194;-65
2023/03/05 02:39:01;;;;;;;3.50;1.58;;;;;;;;;;5096778;28;20621;-64
2023/03/05 02:41:29;;;;;;;4.22;1.73;;;;;;;;;;5096506;28;20194;-64
2023/03/05 02:43:55;;;;;;;5.55;1.42;;;;;;;;;;5096303;28;20226;-64
2023/03/05 02:46:23;;;;;;;15.98;2.72;;;;;;;;;;5096307;28;20191;-65
2023/03/05 02:48:50;;;;;;;4.65;1.80;;;;;;;;;;5096407;28;20591;-65
2023/03/05 02:51:18;;;;;;;2.65;1.45;;;;;;;;;;5096381;28;20198;-65
2023/03/05 02:53:45;;;;;;;4.82;1.77;;;;;;;;;;5096397;28;20251;-65
2023/03/05 02:56:13;;;;;;;2.85;1.38;;;;;;;;;;5096262;28;20189;-65
2023/03/05 02:58:40;;;;;;;3.70;1.65;;;;;;;;;;5096177;28;20194;-65
2023/03/05 03:01:10;;;;;;;3.25;1.70;;;;;;;;;;5096034;28;20610;-65
2023/03/05 03:03:37;;;;;;;7.10;1.52;;;;;;;;;;5095910;28;20693;-64
2023/03/05 03:06:04;;;;;;;7.78;1.65;;;;;;;;;;5096161;28;20193;-64
2023/03/05 03:08:31;;;;;;;3.65;1.40;;;;;;;;;;5096095;28;20276;-65
2023/03/05 03:11:04;;;;;;;3.90;2.35;;;;;;;;;;5095923;28;20280;-65
2023/03/05 03:13:32;;;;;;;7.28;1.42;;;;;;;;;;5095858;28;20238;-65
2023/03/05 03:16:02;;;;;;;5.43;1.52;;;;;;;;;;5095508;28;20251;-65
2023/03/05 03:18:29;;;;;;;4.22;1.60;;;;;;;;;;5095911;28;20275;-65
2023/03/05 03:20:56;;;;;;;4.68;1.92;;;;;;;;;;5095840;28;20218;-65
2023/03/05 03:23:23;;;;;;;5.55;1.92;;;;;;;;;;5095492;28;20220;-64
2023/03/05 03:25:50;;;;;;;2.80;1.48;;;;;;;;;;5095574;28;20636;-65
2023/03/05 03:28:18;;;;;;;5.03;1.77;;;;;;;;;;5095572;28;20219;-65
2023/03/05 03:30:46;;;;;;;2.28;1.40;;;;;;;;;;5095438;28;20200;-65
2023/03/05 03:33:13;;;;;;;7.55;1.90;;;;;;;;;;5095580;28;20198;-65
2023/03/05 03:35:40;;;;;;;7.05;1.83;;;;;;;;;;5095335;28;20674;-65
2023/03/05 03:38:07;;;;;;;3.85;1.38;;;;;;;;;;5095525;28;20601;-65
2023/03/05 03:40:34;;;;;;;5.65;1.55;;;;;;;;;;5095256;28;20287;-65
2023/03/05 03:43:01;;;;;;;3.67;1.60;;;;;;;;;;5095166;28;20187;-65
2023/03/05 03:45:28;;;;;;;5.75;2.00;;;;;;;;;;5095339;28;20238;-65
2023/03/05 03:47:57;;;;;;;5.50;1.70;;;;;;;;;;5095105;28;20195;-65
2023/03/05 03:50:24;;;;;;;5.57;2.35;;;;;;;;;;5095121;28;20754;-65
2023/03/05 03:52:52;;;;;;;5.65;1.50;;;;;;;;;;5095123;28;20261;-65
2023/03/05 03:55:19;;;;;;;7.25;1.60;;;;;;;;;;5095009;28;20203;-65
2023/03/05 03:57:46;;;;;;;4.22;1.83;;;;;;;;;;5095209;28;20221;-65
2023/03/05 04:00:13;;;;;;;7.72;1.70;;;;;;;;;;5095127;28;20193;-64
2023/03/05 04:02:41;;;;;;;6.47;1.48;;;;;;;;;;5095030;28;20190;-65
2023/03/05 04:05:10;;;;;;;3.15;1.25;;;;;;;;;;5094995;28;20246;-65
2023/03/05 04:07:37;;;;;;;5.63;1.40;;;;;;;;;;5094718;28;20607;-65
2023/03/05 04:10:04;;;;;;;5.20;1.40;;;;;;;;;;5094606;28;20567;-65
2023/03/05 04:12:31;;;;;;;7.40;1.52;;;;;;;;;;5094933;28;20224;-64
2023/03/05 04:14:58;;;;;;;4.72;1.50;;;;;;;;;;5094527;28;20651;-65
2023/03/05 04:17:25;;;;;;;3.50;1.88;;;;;;;;;;5094397;28;20701;-65
2023/03/05 04:19:52;;;;;;;4.53;1.38;;;;;;;;;;5094563;28;20226;-65
2023/03/05 04:22:21;;;;;;;12.60;2.55;;;;;;;;;;5093922;28;20257;-65
2023/03/05 04:24:48;;;;;;;4.97;1.80;;;;;;;;;;5094254;28;20563;-65
2023/03/05 04:27:15;;;;;;;3.05;1.27;;;;;;;;;;5094327;28;20684;-65
2023/03/05 04:29:42;;;;;;;5.93;1.92;;;;;;;;;;5094464;28;20195;-65
2023/03/05 04:32:09;;;;;;;2.72;1.35;;;;;;;;;;5094435;28;20286;-65
2023/03/05 04:34:37;;;;;;;1.85;1.30;;;;;;;;;;5094159;28;20188;-65
2023/03/05 04:37:04;;;;;;;5.45;1.42;;;;;;;;;;5094150;28;20294;-65
2023/03/05 04:39:32;;;;;;;5.25;2.03;;;;;;;;;;5094384;28;20222;-65
2023/03/05 04:41:59;;;;;;;3.63;1.40;;;;;;;;;;5094036;28;20195;-65
2023/03/05 04:44:26;;;;;;;3.10;1.58;;;;;;;;;;5094054;28;20218;-65
2023/03/05 04:46:54;;;;;;;7.78;1.75;;;;;;;;;;5094053;28;20580;-65
2023/03/05 04:49:20;;;;;;;4.70;1.55;;;;;;;;;;5093951;28;20257;-65
2023/03/05 04:51:48;;;;;;;3.75;1.42;;;;;;;;;;5094175;28;20193;-65
2023/03/05 04:54:15;;;;;;;3.30;1.20;;;;;;;;;;5094232;28;20204;-65
2023/03/05 04:56:44;;;;;;;4.05;1.70;;;;;;;;;;5093895;28;20192;-65
2023/03/05 04:59:13;;;;;;;6.53;1.60;;;;;;;;;;5093766;28;20235;-65
2023/03/05 05:01:40;;;;;;;7.85;1.70;;;;;;;;;;5093897;28;20193;-65
2023/03/05 05:04:07;;;;;;;6.40;1.63;;;;;;;;;;5093709;28;20213;-65
2023/03/05 05:06:34;;;;;;;1.48;1.25;;;;;;;;;;5093876;28;20712;-65
2023/03/05 05:09:01;;;;;;;4.25;1.42;;;;;;;;;;5093794;28;20188;-65
2023/03/05 05:11:28;;;;;;;8.52;1.60;;;;;;;;;;5093754;28;20295;-65
2023/03/05 05:13:56;;;;;;;5.07;2.03;;;;;;;;;;5093630;28;20207;-65
2023/03/05 05:16:23;;;;;;;3.42;1.92;;;;;;;;;;5093251;28;20234;-66
2023/03/05 05:18:50;;;;;;;7.68;1.75;;;;;;;;;;5093254;28;20195;-64
2023/03/05 05:21:19;;;;;;;2.72;2.53;;;;;;;;;;5093560;28;20221;-64
2023/03/05 05:23:46;;;;;;;8.27;2.03;;;;;;;;;;5093372;28;20221;-66
2023/03/05 05:26:13;;;;;;;6.40;1.27;;;;;;;;;;5093387;28;20778;-66
2023/03/05 05:28:42;;;;;;;4.65;1.90;;;;;;;;;;5093342;28;20677;-65
2023/03/05 05:31:11;;;;;;;3.15;1.30;;;;;;;;;;5093219;28;20225;-65
2023/03/05 05:33:38;;;;;;;10.82;1.63;;;;;;;;;;5092584;28;20252;-65
2023/03/05 05:36:06;;;;;;;7.82;1.60;;;;;;;;;;5093344;28;20292;-65
2023/03/05 05:38:33;;;;;;;6.88;1.65;;;;;;;;;;5093075;28;20203;-65
2023/03/05 05:41:05;;;;;;;6.20;1.70;;;;;;;;;;5093260;28;20228;-65
2023/03/05 05:43:32;;;;;;;4.07;1.48;;;;;;;;;;5093073;28;20195;-64
2023/03/05 05:46:00;;;;;;;4.03;1.30;;;;;;;;;;5093063;28;20254;-65
2023/03/05 05:48:28;;;;;;;12.13;1.30;;;;;;;;;;5093221;28;20642;-64
2023/03/05 05:50:55;;;;;;;4.47;1.48;;;;;;;;;;5093127;28;20197;-65
2023/03/05 05:53:22;;;;;;;4.43;1.60;;;;;;;;;;5093085;28;20199;-65
2023/03/05 05:55:49;;;;;;;6.00;1.40;;;;;;;;;;5092916;28;20233;-65
2023/03/05 05:58:16;;;;;;;4.97;1.90;;;;;;;;;;5092927;28;20308;-65
2023/03/05 06:00:43;;;;;;;7.13;1.95;;;;;;;;;;5092890;28;20694;-65
2023/03/05 06:03:10;;;;;;;7.57;2.03;;;;;;;;;;5093077;28;20191;-65
2023/03/05 06:05:39;;;;;;;5.25;1.88;;;;;;;;;;5092773;28;20231;-65
2023/03/05 06:08:06;;;;;;;3.10;1.50;;;;;;;;;;5092975;28;20283;-65
2023/03/05 06:10:33;;;;;;;4.80;1.48;;;;;;;;;;5092896;28;20191;-65
2023/03/05 06:13:00;;;;;;;4.60;1.90;;;;;;;;;;5092720;28;20641;-65
2023/03/05 06:15:27;;;;;;;4.47;1.80;;;;;;;;;;5092752;28;20227;-65
2023/03/05 06:17:54;;;;;;;4.30;1.13;;;;;;;;;;5093107;28;20223;-65
2023/03/05 06:20:22;;;;;;;5.47;1.52;;;;;;;;;;5093042;28;20278;-65
2023/03/05 06:22:50;;;;;;;2.13;1.33;;;;;;;;;;5092943;28;20191;-64
2023/03/05 06:25:17;;;;;;;7.15;1.90;;;;;;;;;;5092693;28;20252;-65
2023/03/05 06:27:44;;;;;;;4.10;1.33;;;;;;;;;;5093032;28;20612;-65
2023/03/05 06:30:11;;;;;;;2.47;1.65;;;;;;;;;;5092749;28;20238;-65
2023/03/05 06:32:38;;;;;;;4.85;1.30;;;;;;;;;;5092823;28;20248;-65
2023/03/05 06:35:06;;;;;;;2.90;1.40;;;;;;;;;;5092666;28;20278;-64
2023/03/05 06:37:34;;;;;;;4.72;1.75;;;;;;;;;;5092633;28;20703;-65
2023/03/05 06:40:06;;;;;;;2.63;1.75;;;;;;;;;;5092714;28;20200;-65
2023/03/05 06:42:34;;;;;;;8.65;1.70;;;;;;;;;;5092831;28;20196;-65
2023/03/05 06:45:00;;;;;;;3.05;1.48;;;;;;;;;;5093935;28;20218;-65
2023/03/05 06:47:28;;;;;;;6.68;1.92;;;;;;;;;;5096746;28;20191;-65
2023/03/05 06:49:55;;;;;;;7.70;1.80;;;;;;;;;;5096326;28;20232;-65
2023/03/05 06:52:22;;;;;;;5.93;2.00;;;;;;;;;;5096179;28;20199;-65
2023/03/05 06:54:49;;;;;;;9.85;2.08;;;;;;;;;;5096430;28;20199;-65
2023/03/05 06:57:17;;;;;;;6.35;1.98;;;;;;;;;;5096288;28;20204;-66
2023/03/05 06:59:44;;;;;;;4.32;1.63;;;;;;;;;;5096184;28;20203;-65
2023/03/05 07:02:12;;;;;;;5.85;1.77;;;;;;;;;;5096255;28;20550;-65
2023/03/05 07:04:39;;;;;;;2.10;1.20;;;;;;;;;;5095899;28;20685;-65
2023/03/05 07:07:06;;;;;;;6.00;1.75;;;;;;;;;;5095879;28;20662;-65
2023/03/05 07:09:33;;;;;;;9.68;2.20;;;;;;;;;;5096180;28;20604;-65
2023/03/05 07:12:00;;;;;;;7.25;1.48;;;;;;;;;;5096045;28;20191;-65
2023/03/05 07:14:28;;;;;;;5.80;2.00;;;;;;;;;;5095886;28;20195;-65
2023/03/05 07:16:55;;;;;;;8.30;1.92;;;;;;;;;;5095747;28;20244;-65
2023/03/05 07:19:22;;;;;;;3.17;2.05;;;;;;;;;;5095687;28;20227;-65
2023/03/05 07:21:49;;;;;;;7.13;2.78;;;;;;;;;;5095720;28;20188;-65
2023/03/05 07:24:16;;;;;;;4.18;1.83;;;;;;;;;;5096010;28;20651;-65
2023/03/05 07:26:43;;;;;;;6.65;1.80;;;;;;;;;;5095839;28;20199;-65
2023/03/05 07:29:10;;;;;;;5.53;2.78;;;;;;;;;;5095703;28;20282;-65
2023/03/05 07:31:39;;;;;;;5.80;1.60;;;;;;;;;;5095498;28;20254;-65
2023/03/05 07:34:06;;;;;;;6.43;1.40;;;;;;;;;;5095541;28;20199;-65
2023/03/05 07:36:33;;;;;;;2.70;1.20;;;;;;;;;;5095685;28;20539;-65
2023/03/05 07:39:00;;;;;;;4.78;1.40;;;;;;;;;;5095476;28;20262;-65
2023/03/05 07:41:27;;;;;;;2.83;1.52;;;;;;;;;;5095389;28;20246;-65
2023/03/05 07:43:55;;;;;;;4.30;1.70;;;;;;;;;;5095341;28;20193;-65
2023/03/05 07:46:23;;;;;;;6.22;1.60;;;;;;;;;;5095162;28;20619;-65
2023/03/05 07:48:53;;;;;;;3.10;1.50;;;;;;;;;;5095104;28;20654;-65
2023/03/05 07:51:21;;;;;;;3.25;1.35;;;;;;;;;;5095030;28;20682;-66
2023/03/05 07:53:49;;;;;;;2.25;1.15;;;;;;;;;;5095456;28;20193;-65
2023/03/05 07:56:21;;;;;;;2.17;1.73;;;;;;;;;;5094200;28;20196;-65
2023/03/05 07:58:48;;;;;;;4.88;1.75;;;;;;;;;;5095116;28;20613;-65
2023/03/05 08:01:15;;;;;;;9.50;2.00;;;;;;;;;;5094823;28;20192;-65
2023/03/05 08:03:43;;;;;;;6.53;1.50;;;;;;;;;;5094593;28;20217;-65
2023/03/05 08:06:12;;;;;;;3.38;2.67;;;;;;;;;;5094871;28;20262;-65
2023/03/05 08:08:39;;;;;;;3.33;3.08;;;;;;;;;;5094866;28;20193;-65
2023/03/05 08:11:07;;;;;;;3.78;1.75;;;;;;;;;;5094813;28;20200;-65
2023/03/05 08:13:34;;;;;;;6.75;1.70;;;;;;;;;;5094774;28;20224;-65
2023/03/05 08:16:04;;;;;;;6.15;1.30;;;;;;;;;;5094524;28;20263;-65
2023/03/05 08:18:31;;;;;;;3.40;1.00;;;;;;;;;;5094769;28;20223;-65
2023/03/05 08:20:59;;;;;;;4.97;1.67;;;;;;;;;;5094642;28;20791;-65
2023/03/05 08:23:27;;;;;;;4.95;1.65;;;;;;;;;;5094423;28;20204;-65
2023/03/05 08:25:55;;;;;;;2.05;1.33;;;;;;;;;;5094272;28;20212;-65
2023/03/05 08:28:22;;;;;;;2.63;1.70;;;;;;;;;;5094327;28;20227;-65
2023/03/05 08:30:49;;;;;;;2.92;1.70;;;;;;;;;;5094226;28;20279;-65
2023/03/05 08:33:17;;;;;;;2.28;1.23;;;;;;;;;;5094417;28;20193;-65
2023/03/05 08:35:44;;;;;;;5.45;1.48;;;;;;;;;;5094255;28;20191;-65
2023/03/05 08:38:11;;;;;;;3.50;1.70;;;;;;;;;;5094241;28;20218;-65
2023/03/05 08:40:39;;;;;;;3.47;1.95;;;;;;;;;;5094606;28;20189;-64
2023/03/05 08:43:06;;;;;;;5.88;1.40;;;;;;;;;;5093956;28;20189;-65
2023/03/05 08:45:33;;;;;;;4.03;1.30;;;;;;;;;;5094318;28;20221;-65
2023/03/05 08:48:00;;;;;;;8.55;3.00;;;;;;;;;;5094178;28;20208;-64
2023/03/05 08:50:27;;;;;;;3.35;1.30;;;;;;;;;;5094104;28;20197;-64
2023/03/05 08:52:55;;;;;;;5.47;1.25;;;;;;;;;;5094108;28;20194;-64
2023/03/05 08:55:22;;;;;;;5.50;1.70;;;;;;;;;;5093834;28;20242;-65
2023/03/05 08:57:51;;;;;;;3.30;1.27;;;;;;;;;;5093775;28;20192;-65
2023/03/05 09:00:18;;;;;;;11.68;1.60;;;;;;;;;;5093924;28;20193;-65
2023/03/05 09:02:45;;;;;;;3.33;1.63;;;;;;;;;;5093870;28;20196;-66
2023/03/05 09:05:12;;;;;;;3.10;1.38;;;;;;;;;;5093668;28;20211;-65
2023/03/05 09:07:40;;;;;;;5.07;1.60;;;;;;;;;;5093543;28;20191;-65
2023/03/05 09:10:09;;;;;;;4.50;1.45;;;;;;;;;;5093550;28;20199;-65
2023/03/05 09:12:36;;;;;;;5.95;1.83;;;;;;;;;;5093787;28;20552;-65
2023/03/05 09:15:06;;;;;;;4.35;1.40;;;;;;;;;;5093689;28;20198;-65
2023/03/05 09:17:33;;;;;;;6.57;1.10;;;;;;;;;;5093298;28;20273;-65
2023/03/05 09:20:00;;;;;;;2.35;1.42;;;;;;;;;;5093606;28;20246;-65
2023/03/05 09:22:29;;;;;;;2.72;1.55;;;;;;;;;;5093342;28;20204;-65
2023/03/05 09:24:56;;;;;;;3.90;1.65;;;;;;;;;;5093473;28;20185;-65
2023/03/05 09:27:23;;;;;;;2.55;1.40;;;;;;;;;;5093670;28;20199;-65
2023/03/05 09:29:51;;;;;;;2.95;1.30;;;;;;;;;;5093413;28;20200;-65
2023/03/05 09:32:20;;;;;;;2.35;1.20;;;;;;;;;;5093301;28;20189;-65
2023/03/05 09:34:47;;;;;;;3.45;1.20;;;;;;;;;;5093354;28;20227;-65
2023/03/05 09:37:14;;;;;;;3.65;1.17;;;;;;;;;;5093508;28;20201;-64
2023/03/05 09:39:41;;;;;;;2.08;1.33;;;;;;;;;;5093473;28;20694;-64
2023/03/05 09:42:18;;;;;;;4.68;1.48;;;;;;;;;;5093113;28;20192;-65
2023/03/05 09:44:50;;;;;;;3.05;1.52;;;;;;;;;;5093272;28;20232;-65
2023/03/05 09:47:27;;;;;;;4.00;1.73;;;;;;;;;;5093010;28;20223;-65
2023/03/05 09:49:58;;;;;;;3.92;1.10;;;;;;;;;;5093298;28;20196;-65
2023/03/05 09:52:32;;;;;;;2.80;1.20;;;;;;;;;;5093358;28;20555;-65
2023/03/05 09:54:59;;;;;;;3.83;1.00;;;;;;;;;;5093172;28;20200;-65
2023/03/05 09:57:28;;;;;;;3.35;1.38;;;;;;;;;;5093065;28;20192;-65
2023/03/05 09:59:56;;;;;;;5.82;1.88;;;;;;;;;;5093074;28;20190;-65
2023/03/05 10:02:27;;;;;;;1.97;0.90;;;;;;;;;;5093149;28;20193;-65
2023/03/05 10:04:56;;;;;;;2.35;1.20;;;;;;;;;;5093032;28;20462;-66
2023/03/05 10:07:26;;;;;;;3.17;1.30;;;;;;;;;;5092801;28;20273;-66
2023/03/05 10:09:56;;;;;;;1.80;1.20;;;;;;;;;;5092861;28;20235;-66
2023/03/05 10:12:26;;;;;;;6.10;1.55;;;;;;;;;;5092861;28;20254;-66
2023/03/05 10:14:54;;;;;;;3.73;1.20;;;;;;;;;;5093242;28;20272;-66
2023/03/05 10:17:27;;;;;;;1.70;1.30;;;;;;;;;;5092636;28;20471;-66
2023/03/05 10:20:01;;;;;;;3.17;1.50;;;;;;;;;;5094094;28;20193;-66
2023/03/05 10:22:29;;;;;;;1.13;0.90;;;;;;;;;;5096998;28;20624;-66
2023/03/05 10:25:03;;;;;;;2.50;1.10;;;;;;;;;;5096864;28;20487;-66
2023/03/05 10:27:38;;;;;;;2.33;1.10;;;;;;;;;;5096883;28;20216;-67
2023/03/05 10:30:13;;;;;;;2.28;1.48;;;;;;;;;;5096656;28;20442;-66
2023/03/05 10:32:44;;;;;;;5.03;1.70;;;;;;;;;;5096742;28;20188;-67
2023/03/05 10:35:20;;;;;;;5.25;1.70;;;;;;;;;;5096547;28;20193;-66
2023/03/05 10:38:02;;;;;;;3.03;1.83;;;;;;;;;;5096572;28;20192;-66
2023/03/05 10:40:31;;;;;;;1.30;1.10;;;;;;;;;;5094511;28;20201;-65
2023/03/05 10:43:01;;;;;;;3.40;1.50;;;;;;;;;;5096526;28;20189;-65
2023/03/05 10:45:32;;;;;;;1.87;1.40;;;;;;;;;;5096400;28;20456;-64
2023/03/05 10:48:05;;;;;;;4.10;1.30;;;;;;;;;;5095658;28;20442;-65
2023/03/05 10:50:35;;;;;;;3.92;1.33;;;;;;;;;;5096603;28;20223;-65
2023/03/05 10:53:07;;;;;;;2.05;1.80;;;;;;;;;;5096478;28;20590;-65
2023/03/05 10:55:34;;;;;;;2.03;1.42;;;;;;;;;;5096271;28;20185;-65
2023/03/05 10:58:01;;;;;;;2.03;1.00;;;;;;;;;;5096222;28;20213;-65
2023/03/05 11:00:31;;;;;;;1.95;1.40;;;;;;;;;;5096083;28;20504;-65
2023/03/05 11:02:59;;;;;;;6.03;1.52;;;;;;;;;;5096252;28;20192;-64
2023/03/05 11:05:46;;;;;;;6.63;1.30;;;;;;;;;;5096073;28;20193;-65
2023/03/05 11:08:30;;;;;;;5.30;1.80;;;;;;;;;;5096033;28;20189;-64
2023/03/05 11:11:04;;;;;;;2.88;1.60;;;;;;;;;;5095857;28;20201;-65
2023/03/05 11:13:32;;;;;;;7.47;1.80;;;;;;;;;;5095981;28;20316;-66
2023/03/05 11:16:00;;;;;;;6.32;1.30;;;;;;;;;;5095657;28;20228;-65
2023/03/05 11:18:33;;;;;;;5.10;1.33;;;;;;;;;;5095979;28;20193;-65
2023/03/05 11:21:09;;;;;;;1.50;1.40;;;;;;;;;;5095754;28;20202;-65
2023/03/05 11:23:36;;;;;;;2.10;1.85;;;;;;;;;;5095990;28;20711;-65
2023/03/05 11:26:05;;;;;;;3.97;1.58;;;;;;;;;;5095585;28;20273;-65
2023/03/05 11:28:34;;;;;;;4.20;2.55;;;;;;;;;;5095725;28;20189;-65
2023/03/05 11:31:03;;;;;;;5.07;2.42;;;;;;;;;;5094575;28;20200;-65
2023/03/05 11:33:30;;;;;;;3.92;1.75;;;;;;;;;;5095315;28;20192;-65
2023/03/05 11:36:21;;;;;;;5.82;1.95;;;;;;;;;;5095368;28;20306;-64
2023/03/05 11:38:51;;;;;;;1.95;1.48;;;;;;;;;;5095602;28;20271;-64
2023/03/05 11:41:21;;;;;;;5.38;1.67;;;;;;;;;;5095291;28;20191;-65
2023/03/05 11:43:48;;;;;;;1.90;1.50;;;;;;;;;;5095278;28;20242;-65
2023/03/05 11:46:17;;;;;;;3.00;1.58;;;;;;;;;;5095162;28;20252;-65
2023/03/05 11:48:45;;;;;;;2.40;1.80;;;;;;;;;;5095398;28;20565;-65
2023/03/05 11:51:17;;;;;;;4.38;1.70;;;;;;;;;;5095361;28;20231;-65
2023/03/05 11:53:45;;;;;;;6.10;2.25;;;;;;;;;;5095401;28;20197;-65
2023/03/05 11:56:18;;;;;;;3.30;1.50;;;;;;;;;;5095151;28;20197;-65
2023/03/05 11:58:47;;;;;;;1.83;1.20;;;;;;;;;;5095090;28;20279;-65
2023/03/05 12:01:16;;;;;;;4.88;1.63;;;;;;;;;;5095414;28;20245;-65
2023/03/05 12:03:43;;;;;;;1.50;1.10;;;;;;;;;;5094784;28;20670;-65
2023/03/05 12:06:14;;;;;;;2.17;1.35;;;;;;;;;;5094830;28;20747;-66
2023/03/05 12:08:45;;;;;;;3.08;1.60;;;;;;;;;;5095014;28;20188;-66
2023/03/05 12:11:16;;;;;;;3.22;1.20;;;;;;;;;;5094994;28;20534;-66
2023/03/05 12:13:46;;;;;;;2.35;2.15;;;;;;;;;;5095237;28;20193;-66
2023/03/05 12:16:18;;;;;;;2.67;1.50;;;;;;;;;;5094583;28;20542;-66
2023/03/05 12:18:52;;;;;;;1.70;1.60;;;;;;;;;;5094468;28;20200;-66
2023/03/05 12:21:25;;;;;;;1.60;1.50;;;;;;;;;;5094636;28;20188;-65
2023/03/05 12:23:54;;;;;;;2.33;1.58;;;;;;;;;;5094457;28;20562;-65
2023/03/05 12:26:36;;;;;;;4.72;1.50;;;;;;;;;;5094371;28;20309;-65
2023/03/05 12:29:03;;;;;;;3.15;2.17;;;;;;;;;;5094522;28;20219;-65
2023/03/05 12:31:38;;;;;;;4.43;1.83;;;;;;;;;;5094510;28;20217;-65
2023/03/05 12:34:23;;;;;;;2.22;1.45;;;;;;;;;;5094277;28;20189;-65
2023/03/05 12:36:50;;;;;;;3.08;1.67;;;;;;;;;;5094276;28;20195;-65
2023/03/05 12:39:46;;;;;;;1.65;1.55;;;;;;;;;;5094156;28;20189;-65
2023/03/05 12:42:32;;;;;;;3.78;1.20;;;;;;;;;;5058292;28;20270;-66
2023/03/05 12:45:22;;;;;;;4.20;1.88;;;;;;;;;;5094321;28;20196;-66
2023/03/05 12:48:11;;;;;;;2.95;1.00;;;;;;;;;;5078719;28;20262;-66
2023/03/05 12:50:48;;;;;;;2.10;1.63;;;;;;;;;;5093801;28;20250;-64
2023/03/05 12:53:17;;;;;;;2.72;1.55;;;;;;;;;;5094113;28;20934;-65
2023/03/05 12:55:50;;;;;;;2.55;1.58;;;;;;;;;;5093834;28;20192;-64
2023/03/05 12:58:20;;;;;;;6.43;1.75;;;;;;;;;;5093988;28;20239;-65
2023/03/05 13:00:49;;;;;;;2.22;1.50;;;;;;;;;;5093809;28;20185;-65
2023/03/05 13:03:19;;;;;;;2.95;1.63;;;;;;;;;;5093788;28;20579;-65
2023/03/05 13:05:50;;;;;;;1.53;1.43;;;;;;;;;;5094000;28;20211;-65
2023/03/05 13:08:21;;;;;;;6.50;1.60;;;;;;;;;;5093727;28;20479;-65
2023/03/05 13:10:52;;;;;;;3.53;1.50;;;;;;;;;;5093625;28;20192;-65
2023/03/05 13:13:19;;;;;;;5.72;1.40;;;;;;;;;;5093853;28;20849;-65
2023/03/05 13:15:46;;;;;;;2.97;1.50;;;;;;;;;;5093379;28;20271;-65
2023/03/05 13:18:19;;;;;;;3.53;1.77;;;;;;;;;;5093479;28;20513;-65
2023/03/05 13:20:50;;;;;;;2.42;1.58;;;;;;;;;;5093519;28;20199;-66
2023/03/05 13:23:20;;;;;;;5.13;1.50;;;;;;;;;;5093391;28;20466;-66
2023/03/05 13:25:57;;;;;;;2.60;1.67;;;;;;;;;;5093480;28;20250;-65
2023/03/05 13:28:25;;;;;;;3.85;1.48;;;;;;;;;;5093155;28;20875;-65
2023/03/05 13:30:52;;;;;;;3.60;1.48;;;;;;;;;;5093642;28;20245;-66
2023/03/05 13:33:23;;;;;;;2.38;1.30;;;;;;;;;;5093204;28;20194;-64
2023/03/05 13:35:51;;;;;;;3.97;1.40;;;;;;;;;;5093406;28;20199;-65
2023/03/05 13:38:26;;;;;;;4.70;2.05;;;;;;;;;;5093282;28;20458;-65
2023/03/05 13:41:19;;;;;;;2.08;1.52;;;;;;;;;;5093123;28;20193;-65
2023/03/05 13:43:47;;;;;;;3.55;2.47;;;;;;;;;;5093408;28;20207;-65
2023/03/05 13:46:22;;;;;;;3.85;2.70;;;;;;;;;;5093084;28;20612;-65
2023/03/05 13:48:50;;;;;;;2.30;1.70;;;;;;;;;;5093147;28;20601;-65
2023/03/05 13:51:18;;;;;;;2.97;1.70;;;;;;;;;;5093022;28;20191;-65
2023/03/05 13:53:45;;;;;;;2.42;1.30;;;;;;;;;;5092780;28;20189;-65
2023/03/05 13:56:19;;;;;;;2.38;2.17;;;;;;;;;;5092658;28;20189;-65
2023/03/05 13:58:48;;;;;;;4.60;1.40;;;;;;;;;;5093156;28;20219;-65
2023/03/05 14:01:18;;;;;;;2.87;1.90;;;;;;;;;;5092938;28;20490;-65
2023/03/05 14:03:49;;;;;;;2.85;1.80;;;;;;;;;;5092899;28;20471;-65
2023/03/05 14:06:18;;;;;;;7.75;2.53;;;;;;;;;;5092760;28;20191;-65
2023/03/05 14:08:49;;;;;;;2.92;1.80;;;;;;;;;;5092982;28;20265;-65
2023/03/05 14:11:17;;;;;;;2.58;1.90;;;;;;;;;;5092929;28;20640;-65
2023/03/05 14:13:45;;;;;;;3.65;1.45;;;;;;;;;;5092997;28;20185;-65
2023/03/05 14:16:13;;;;;;;3.03;1.77;;;;;;;;;;5092523;28;20213;-65
2023/03/05 14:18:52;;;;;;;3.97;1.87;;;;;;;;;;5092990;28;20228;-65
2023/03/05 14:21:19;;;;;;;4.32;2.10;;;;;;;;;;5092772;28;20498;-65
2023/03/05 14:23:48;;;;;;;5.65;2.03;;;;;;;;;;5092862;28;20594;-65
2023/03/05 14:26:24;;;;;;;7.60;2.03;;;;;;;;;;5092642;28;20193;-65
2023/03/05 14:28:51;;;;;;;2.40;1.63;;;;;;;;;;5092324;28;20216;-65
2023/03/05 14:31:19;;;;;;;3.10;1.90;;;;;;;;;;5092828;28;20189;-65
2023/03/05 14:33:46;;;;;;;3.40;1.17;;;;;;;;;;5092749;28;20938;-65
2023/03/05 14:36:14;;;;;;;2.07;1.17;;;;;;;;;;5092566;28;20702;-65
2023/03/05 14:38:42;;;;;;;6.00;1.55;;;;;;;;;;5092646;28;20455;-65
2023/03/05 14:41:21;;;;;;;2.30;1.25;;;;;;;;;;5092609;28;20193;-65
2023/03/05 14:43:48;;;;;;;2.03;1.38;;;;;;;;;;5092896;28;20272;-65
2023/03/05 14:46:15;;;;;;;2.05;1.35;;;;;;;;;;5092513;28;20720;-65
2023/03/05 14:48:42;;;;;;;3.77;1.57;;;;;;;;;;5092498;28;20224;-65
2023/03/05 14:51:10;;;;;;;1.95;1.10;;;;;;;;;;5092479;28;20455;-64